createdAt,value
2023-01-07T00:02:17.547Z,90161.50
2023-01-07T00:04:44.810Z,90161.50
2023-01-07T00:07:12.518Z,90161.50
2023-01-07T00:09:39.869Z,90161.50
2023-01-07T00:12:07.191Z,89902.44
2023-01-07T00:14:36.747Z,89902.44
2023-01-07T00:17:04.185Z,89902.44
2023-01-07T00:19:31.493Z,89643.41
2023-01-07T00:22:00.177Z,89902.44
2023-01-07T00:24:32.029Z,89902.44
2023-01-07T00:27:02.690Z,89643.41
2023-01-07T00:29:29.923Z,89902.44
2023-01-07T00:31:57.579Z,89902.44
2023-01-07T00:34:29.738Z,89643.41
2023-01-07T00:37:17.249Z,89384.41
2023-01-07T00:39:46.952Z,89125.41
2023-01-07T00:42:33.151Z,89125.41
2023-01-07T00:45:00.423Z,89384.41
2023-01-07T00:47:30.224Z,89384.41
2023-01-07T00:49:58.043Z,89643.41
2023-01-07T00:52:25.644Z,89643.41
2023-01-07T00:54:52.834Z,89384.41
2023-01-07T00:57:20.457Z,89643.41
2023-01-07T00:59:52.474Z,89384.41
2023-01-07T01:02:19.934Z,89643.41
2023-01-07T01:04:47.279Z,89643.41
2023-01-07T01:07:15.715Z,89643.41
2023-01-07T01:09:45.517Z,89384.41
2023-01-07T01:12:14.902Z,89384.41
2023-01-07T01:14:44.510Z,89384.41
2023-01-07T01:17:14.283Z,89384.41
2023-01-07T01:19:41.476Z,89643.41
2023-01-07T01:22:09.073Z,89643.41
2023-01-07T01:24:36.163Z,89902.44
2023-01-07T01:27:05.768Z,89902.44
2023-01-07T01:29:32.947Z,89902.44
2023-01-07T01:32:01.073Z,90161.50
2023-01-07T01:34:29.642Z,90161.50
2023-01-07T01:36:59.531Z,90161.50
2023-01-07T01:39:26.931Z,90161.50
2023-01-07T01:41:54.251Z,90161.50
2023-01-07T01:44:48.298Z,89902.44
2023-01-07T01:47:43.005Z,89902.44
2023-01-07T01:50:16.539Z,89902.44
2023-01-07T01:52:55.793Z,89643.41
2023-01-07T01:55:37.929Z,89643.41
2023-01-07T01:58:13.779Z,89902.44
2023-01-07T02:00:42.886Z,89902.44
2023-01-07T02:03:17.054Z,89643.41
2023-01-07T02:05:45.735Z,89643.41
2023-01-07T02:08:15.059Z,89902.44
2023-01-07T02:10:43.011Z,90161.50
2023-01-07T02:13:25.704Z,90161.50
2023-01-07T02:16:11.766Z,90161.50
2023-01-07T02:18:59.195Z,90161.50
2023-01-07T02:21:44.948Z,90161.50
2023-01-07T02:24:49.371Z,90161.50
2023-01-07T02:27:25.828Z,90420.56
2023-01-07T02:30:01.933Z,90420.56
2023-01-07T02:32:35.243Z,90679.66
2023-01-07T02:35:15.321Z,90679.66
2023-01-07T02:38:00.732Z,90679.66
2023-01-07T02:40:41.220Z,90938.78
2023-01-07T02:43:20.623Z,90679.66
2023-01-07T02:45:52.365Z,90420.56
2023-01-07T02:48:22.235Z,90161.50
2023-01-07T02:50:49.826Z,90420.56
2023-01-07T02:53:21.051Z,90420.56
2023-01-07T02:56:30.496Z,90420.56
2023-01-07T02:59:06.898Z,90679.66
2023-01-07T03:02:06.026Z,90420.56
2023-01-07T03:04:51.958Z,90161.50
2023-01-07T03:07:34.848Z,90679.66
2023-01-07T03:10:26.554Z,90420.56
2023-01-07T03:13:27.844Z,90161.50
2023-01-07T03:16:05.535Z,90420.56
2023-01-07T03:18:46.363Z,90420.56
2023-01-07T03:21:18.927Z,90420.56
2023-01-07T03:23:51.894Z,90161.50
2023-01-07T03:26:24.983Z,90161.50
2023-01-07T03:28:53.093Z,90161.50
2023-01-07T03:31:21.543Z,90420.56
2023-01-07T03:33:59.823Z,90161.50
2023-01-07T03:36:32.952Z,90161.50
2023-01-07T03:39:01.538Z,90161.50
2023-01-07T03:41:47.814Z,90161.50
2023-01-07T03:44:15.067Z,90161.50
2023-01-07T03:46:42.728Z,90161.50
2023-01-07T03:49:12.731Z,89902.44
2023-01-07T03:51:39.954Z,89902.44
2023-01-07T03:54:08.881Z,89902.44
2023-01-07T03:56:36.368Z,90161.50
2023-01-07T03:59:05.940Z,90161.50
2023-01-07T04:01:33.245Z,90161.50
2023-01-07T04:04:03.121Z,89384.41
2023-01-07T04:06:33.271Z,89384.41
2023-01-07T04:09:00.644Z,88866.44
2023-01-07T04:11:28.308Z,88866.44
2023-01-07T04:14:00.632Z,88866.44
2023-01-07T04:16:29.238Z,88866.44
2023-01-07T04:18:56.896Z,88866.44
2023-01-07T04:21:26.552Z,89125.41
2023-01-07T04:23:57.135Z,88866.44
2023-01-07T04:26:24.315Z,89125.41
2023-01-07T04:28:51.908Z,89125.41
2023-01-07T04:31:21.530Z,88348.56
2023-01-07T04:33:48.977Z,88348.56
2023-01-07T04:36:18.685Z,88607.50
2023-01-07T04:38:46.346Z,88348.56
2023-01-07T04:41:16.506Z,88348.56
2023-01-07T04:43:44.920Z,88348.56
2023-01-07T04:46:12.128Z,88089.66
2023-01-07T04:48:39.581Z,88089.66
2023-01-07T04:51:07.763Z,88089.66
2023-01-07T04:53:35.163Z,88089.66
2023-01-07T04:56:06.208Z,88089.66
2023-01-07T04:58:37.126Z,88607.50
2023-01-07T05:01:04.745Z,88607.50
2023-01-07T05:03:37.267Z,88348.56
2023-01-07T05:06:05.875Z,88607.50
2023-01-07T05:08:34.424Z,88607.50
2023-01-07T05:11:03.814Z,88866.44
2023-01-07T05:13:36.340Z,88607.50
2023-01-07T05:16:05.249Z,88607.50
2023-01-07T05:18:33.548Z,88607.50
2023-01-07T05:21:03.639Z,88607.50
2023-01-07T05:23:33.216Z,88348.56
2023-01-07T05:26:03.687Z,88348.56
2023-01-07T05:28:32.290Z,88348.56
2023-01-07T05:31:02.124Z,88348.56
2023-01-07T05:33:32.866Z,88348.56
2023-01-07T05:36:03.197Z,88348.56
2023-01-07T05:38:33.138Z,88866.44
2023-01-07T05:41:05.433Z,89384.41
2023-01-07T05:43:32.966Z,88866.44
2023-01-07T05:46:00.753Z,88866.44
2023-01-07T05:48:28.389Z,88866.44
2023-01-07T05:50:55.614Z,88607.50
2023-01-07T05:53:25.316Z,89384.41
2023-01-07T05:56:01.528Z,89643.41
2023-01-07T05:58:29.336Z,89643.41
2023-01-07T06:00:56.612Z,89643.41
2023-01-07T06:03:27.322Z,89643.41
2023-01-07T06:05:56.748Z,89643.41
2023-01-07T06:08:24.116Z,89643.41
2023-01-07T06:10:51.480Z,89643.41
2023-01-07T06:57:34.189Z,90161.50
2023-01-07T07:00:01.341Z,89902.44
2023-01-07T07:02:29.128Z,89902.44
2023-01-07T07:04:56.288Z,89902.44
2023-01-07T07:07:24.230Z,89125.41
2023-01-07T07:09:53.484Z,88348.56
2023-01-07T07:12:24.128Z,88089.66
2023-01-07T07:14:51.229Z,87313.03
2023-01-07T07:17:18.678Z,86536.56
2023-01-07T07:19:45.993Z,86019.03
2023-01-07T07:22:15.582Z,86019.03
2023-01-07T07:24:43.037Z,85760.28
2023-01-07T07:27:10.453Z,85501.56
2023-01-07T07:29:37.574Z,85242.88
2023-01-07T10:16:24.054Z,64866.81
2023-01-07T10:19:18.513Z,65123.97
2023-01-07T10:22:02.921Z,64866.81
2023-01-07T10:24:41.645Z,64866.81
2023-01-07T10:27:17.576Z,64866.81
2023-01-07T10:29:52.970Z,64609.66
2023-01-07T10:32:25.689Z,64609.66
2023-01-07T10:34:57.199Z,64866.81
2023-01-07T10:37:41.669Z,64866.81
2023-01-07T10:40:27.765Z,65123.97
2023-01-07T10:43:48.898Z,64866.81
2023-01-07T10:47:02.840Z,65638.38
2023-01-07T10:50:12.660Z,66152.84
2023-01-07T10:52:58.701Z,66152.84
2023-01-07T10:55:47.643Z,65895.59
2023-01-07T10:58:14.784Z,66152.84
2023-01-07T11:00:42.419Z,66410.09
2023-01-07T11:03:20.044Z,67182.00
2023-01-07T11:05:54.122Z,67696.72
2023-01-07T11:08:38.041Z,68211.50
2023-01-07T11:11:06.763Z,69241.31
2023-01-07T11:13:37.834Z,69756.31
2023-01-07T11:16:12.493Z,70013.84
2023-01-07T11:19:09.123Z,68468.91
2023-01-07T11:21:42.457Z,66410.09
2023-01-07T11:24:27.081Z,64866.81
2023-01-07T11:27:25.313Z,64352.53
2023-01-07T11:29:59.922Z,64866.81
2023-01-07T11:32:30.569Z,65123.97
2023-01-07T11:35:01.157Z,65123.97
2023-01-07T11:37:38.496Z,65123.97
2023-01-07T11:40:19.179Z,65638.38
2023-01-07T11:42:55.736Z,65895.59
2023-01-07T11:46:20.441Z,65895.59
2023-01-07T11:48:49.913Z,67182.00
2023-01-07T11:51:17.146Z,67439.34
2023-01-07T11:54:06.200Z,66924.69
2023-01-07T11:56:34.377Z,67439.34
2023-01-07T11:59:14.234Z,67696.72
2023-01-07T12:01:44.162Z,67696.72
2023-01-07T12:04:25.159Z,67696.72
2023-01-07T12:06:55.383Z,67696.72
2023-01-07T12:09:36.749Z,68211.50
2023-01-07T12:12:34.676Z,68726.38
2023-01-07T12:15:18.188Z,68468.91
2023-01-07T12:17:49.596Z,68983.81
2023-01-07T12:20:28.260Z,69241.31
2023-01-07T12:23:28.297Z,69498.81
2023-01-07T12:26:16.917Z,69498.81
2023-01-07T12:28:52.324Z,70013.84
2023-01-07T12:31:28.821Z,70271.41
2023-01-07T12:34:08.161Z,70528.97
2023-01-07T12:36:52.964Z,70786.59
2023-01-07T12:39:30.447Z,70786.59
2023-01-07T12:42:06.558Z,71044.19
2023-01-07T12:44:39.457Z,71559.47
2023-01-07T12:47:31.249Z,71817.16
2023-01-07T12:50:26.186Z,73621.41
2023-01-07T12:53:02.276Z,74652.84
2023-01-07T12:55:59.493Z,74652.84
2023-01-07T12:58:45.865Z,75168.66
2023-01-07T13:01:18.287Z,75426.59
2023-01-07T13:04:09.474Z,75684.56
2023-01-07T13:06:50.433Z,76716.63
2023-01-07T13:09:23.693Z,78781.66
2023-01-07T13:12:40.495Z,79039.88
2023-01-07T13:15:22.591Z,79556.34
2023-01-07T13:17:53.503Z,79039.88
2023-01-07T13:20:36.631Z,78265.28
2023-01-07T13:23:11.428Z,78523.44
2023-01-07T13:26:02.045Z,78265.28
2023-01-07T13:29:00.537Z,78007.13
2023-01-07T13:31:54.652Z,78265.28
2023-01-07T13:34:45.093Z,78781.66
2023-01-07T13:37:43.228Z,78781.66
2023-01-07T13:40:25.636Z,79298.09
2023-01-07T13:43:14.525Z,80072.94
2023-01-07T13:45:50.978Z,80847.91
2023-01-07T13:48:22.440Z,81364.69
2023-01-07T13:51:05.780Z,80847.91
2023-01-07T13:53:46.257Z,80847.91
2023-01-07T13:56:16.589Z,80847.91
2023-01-07T13:58:57.243Z,80331.25
2023-01-07T14:01:26.994Z,80072.94
2023-01-07T14:04:06.787Z,79556.34
2023-01-07T14:06:38.993Z,79039.88
2023-01-07T14:09:06.371Z,78523.44
2023-01-07T14:11:33.692Z,78265.28
2023-01-07T14:14:31.348Z,78007.13
2023-01-07T14:17:17.732Z,78265.28
2023-01-07T14:20:14.713Z,77748.97
2023-01-07T14:22:42.103Z,77490.88
2023-01-07T14:25:35.080Z,76974.69
2023-01-07T14:28:44.965Z,76200.56
2023-01-07T14:31:26.498Z,76200.56
2023-01-07T14:34:04.926Z,75168.66
2023-01-07T14:37:01.749Z,74910.75
2023-01-07T14:39:41.250Z,74394.94
2023-01-07T14:42:27.087Z,74137.09
2023-01-07T14:44:54.429Z,73879.22
2023-01-07T14:47:43.881Z,73363.59
2023-01-07T14:50:23.441Z,72074.84
2023-01-07T14:53:03.068Z,71044.19
2023-01-07T14:55:57.995Z,70528.97
2023-01-07T14:58:37.253Z,70528.97
2023-01-07T15:01:21.967Z,70271.41
2023-01-07T15:04:07.605Z,69756.31
2023-01-07T15:06:43.265Z,68983.81
2023-01-07T15:09:36.275Z,68468.91
2023-01-07T15:12:27.152Z,68211.50
2023-01-07T15:15:25.672Z,68211.50
2023-01-07T15:17:52.827Z,68211.50
2023-01-07T15:20:27.992Z,67954.09
2023-01-07T15:23:04.335Z,67439.34
2023-01-07T15:25:50.872Z,67182.00
2023-01-07T15:28:17.977Z,67439.34
2023-01-07T15:31:12.816Z,68211.50
2023-01-07T15:34:17.126Z,68211.50
2023-01-07T15:36:50.663Z,68211.50
2023-01-07T15:39:26.976Z,68726.38
2023-01-07T15:41:55.408Z,68726.38
2023-01-07T15:44:29.010Z,68468.91
2023-01-07T15:46:56.858Z,69241.31
2023-01-07T15:49:26.218Z,70013.84
2023-01-07T15:51:59.455Z,70271.41
2023-01-07T15:54:28.997Z,70271.41
2023-01-07T15:57:28.952Z,70528.97
2023-01-07T15:59:57.152Z,70786.59
2023-01-07T16:02:31.670Z,71044.19
2023-01-07T16:05:02.509Z,71301.84
2023-01-07T16:07:48.483Z,71301.84
2023-01-07T16:10:22.337Z,70786.59
2023-01-07T16:12:56.776Z,71044.19
2023-01-07T16:15:32.378Z,71044.19
2023-01-07T16:18:04.561Z,70786.59
2023-01-07T16:20:49.831Z,70786.59
2023-01-07T16:23:21.354Z,70528.97
2023-01-07T16:25:57.697Z,71044.19
2023-01-07T16:28:30.840Z,71301.84
2023-01-07T16:31:00.275Z,72074.84
2023-01-07T16:33:33.481Z,72848.03
2023-01-07T16:36:04.946Z,73105.81
2023-01-07T16:38:36.494Z,73621.41
2023-01-07T16:41:06.270Z,73879.22
2023-01-07T16:43:33.854Z,74652.84
2023-01-07T16:46:17.831Z,75426.59
2023-01-07T16:48:46.742Z,76200.56
2023-01-07T16:51:44.519Z,76200.56
2023-01-07T16:54:44.812Z,76974.69
2023-01-07T16:57:15.106Z,77748.97
2023-01-07T16:59:55.240Z,78007.13
2023-01-07T17:02:39.209Z,78265.28
2023-01-07T17:05:31.016Z,78523.44
2023-01-07T17:08:05.632Z,78781.66
2023-01-07T17:10:40.490Z,79039.88
2023-01-07T17:13:35.862Z,79298.09
2023-01-07T17:16:26.258Z,80072.94
2023-01-07T17:18:56.315Z,80589.56
2023-01-07T17:21:32.045Z,81106.28
2023-01-07T17:23:59.291Z,81623.09
2023-01-07T17:26:30.973Z,82139.97
2023-01-07T17:29:18.971Z,82656.94
2023-01-07T17:31:47.079Z,82915.44
2023-01-07T17:34:15.791Z,83173.97
2023-01-07T17:36:43.113Z,83432.50
2023-01-07T17:39:13.465Z,83949.66
2023-01-07T17:41:59.292Z,83949.66
2023-01-07T17:44:26.869Z,84725.53
2023-01-07T17:46:58.830Z,84984.19
2023-01-07T17:49:26.871Z,84984.19
2023-01-07T17:51:54.912Z,85242.88
2023-01-07T17:54:26.112Z,85501.56
2023-01-07T17:56:54.303Z,85760.28
2023-01-07T17:59:23.367Z,86019.03
2023-01-07T18:01:54.794Z,85760.28
2023-01-07T18:04:25.159Z,86019.03
2023-01-07T18:06:54.485Z,86536.56
2023-01-07T18:09:24.106Z,86277.78
2023-01-07T18:12:10.125Z,86019.03
2023-01-07T18:14:38.864Z,86277.78
2023-01-07T18:17:07.454Z,86277.78
2023-01-07T18:19:35.126Z,86019.03
2023-01-07T18:22:02.544Z,86277.78
2023-01-07T18:24:30.141Z,86277.78
2023-01-07T18:26:57.440Z,86536.56
2023-01-07T18:29:24.936Z,86277.78
2023-01-07T18:31:52.177Z,86536.56
2023-01-07T18:34:19.518Z,86277.78
2023-01-07T18:36:46.758Z,86536.56
2023-01-07T18:39:20.714Z,86536.56
2023-01-07T18:41:54.155Z,86795.38
2023-01-07T18:44:24.120Z,86536.56
2023-01-07T18:46:53.890Z,86536.56
2023-01-07T18:49:21.215Z,86536.56
2023-01-07T18:51:48.649Z,86536.56
2023-01-07T18:54:16.424Z,86536.56
2023-01-07T18:56:46.808Z,86536.56
2023-01-07T18:59:16.457Z,86536.56
2023-01-07T19:01:43.933Z,86277.78
2023-01-07T19:04:13.509Z,86536.56
2023-01-07T19:06:43.643Z,86277.78
2023-01-07T19:09:11.162Z,86277.78
2023-01-07T19:11:38.490Z,86536.56
2023-01-07T19:14:05.935Z,86536.56
2023-01-07T19:16:33.417Z,86795.38
2023-01-07T19:19:01.015Z,86795.38
2023-01-07T19:21:30.619Z,87054.19
2023-01-07T19:23:58.876Z,87054.19
2023-01-07T19:26:27.301Z,87054.19
2023-01-07T19:28:55.680Z,87571.88
2023-01-07T19:31:22.943Z,88089.66
2023-01-07T19:33:50.460Z,88866.44
2023-01-07T19:36:18.657Z,89384.41
2023-01-07T19:38:48.489Z,90420.56
2023-01-07T19:41:20.066Z,91197.91
2023-01-07T19:43:52.290Z,91197.91
2023-01-07T19:46:20.220Z,90938.78
2023-01-07T19:48:47.861Z,90938.78
2023-01-07T19:51:15.429Z,90938.78
2023-01-07T19:53:47.894Z,90938.78
2023-01-07T19:56:15.183Z,90938.78
2023-01-07T19:58:43.025Z,90679.66
2023-01-07T20:01:19.547Z,90679.66
2023-01-07T20:03:46.910Z,91197.91
2023-01-07T20:06:17.176Z,91197.91
2023-01-07T20:08:45.482Z,90938.78
2023-01-07T20:11:13.616Z,91197.91
2023-01-07T20:13:46.912Z,91197.91
2023-01-07T20:16:16.109Z,91197.91
2023-01-07T20:18:46.273Z,90938.78
2023-01-07T20:21:15.193Z,90420.56
2023-01-07T20:23:42.960Z,90420.56
2023-01-07T20:26:13.175Z,90161.50
2023-01-07T20:28:40.965Z,90161.50
2023-01-07T20:31:10.962Z,90420.56
2023-01-07T20:33:38.633Z,90420.56
2023-01-07T20:36:08.749Z,90679.66
2023-01-07T20:38:37.511Z,90420.56
2023-01-07T20:41:06.569Z,90420.56
2023-01-07T20:43:35.548Z,90161.50
2023-01-07T20:46:05.087Z,89902.44
2023-01-07T20:48:34.129Z,89902.44
2023-01-07T20:51:08.589Z,90161.50
2023-01-07T20:53:37.063Z,90161.50
2023-01-07T20:56:05.824Z,90420.56
2023-01-07T20:58:35.829Z,90420.56
2023-01-07T21:01:08.408Z,90420.56
2023-01-07T21:03:37.495Z,90420.56
2023-01-07T21:06:13.349Z,90420.56
2023-01-07T21:08:43.194Z,90420.56
2023-01-07T21:11:16.138Z,90420.56
2023-01-07T21:13:43.857Z,90161.50
2023-01-07T21:16:12.064Z,90420.56
2023-01-07T21:18:43.068Z,90161.50
2023-01-07T21:21:15.943Z,89902.44
2023-01-07T21:23:46.739Z,89902.44
2023-01-07T21:26:14.909Z,90420.56
2023-01-07T21:28:45.164Z,90420.56
2023-01-07T21:31:15.349Z,90420.56
2023-01-07T21:33:43.417Z,90420.56
2023-01-07T21:36:15.821Z,90420.56
2023-01-07T21:38:43.473Z,90420.56
2023-01-07T21:41:13.662Z,90420.56
2023-01-07T21:43:41.507Z,90679.66
2023-01-07T21:46:09.230Z,90679.66
2023-01-07T21:48:39.724Z,90679.66
2023-01-07T21:51:10.715Z,90679.66
2023-01-07T21:53:38.332Z,90420.56
2023-01-07T21:56:16.468Z,90420.56
2023-01-07T21:58:46.773Z,90420.56
2023-01-07T22:01:15.006Z,90420.56
2023-01-07T22:03:47.515Z,90420.56
2023-01-07T22:06:21.748Z,90420.56
2023-01-07T22:08:50.021Z,90679.66
2023-01-07T22:11:18.070Z,90420.56
2023-01-07T22:13:49.507Z,90161.50
2023-01-07T22:16:16.881Z,90161.50
2023-01-07T22:18:46.851Z,90161.50
2023-01-07T22:21:16.983Z,89902.44
2023-01-07T22:23:45.829Z,89902.44
2023-01-07T22:26:14.759Z,89902.44
2023-01-07T22:28:45.661Z,89902.44
2023-01-07T22:31:19.498Z,89902.44
2023-01-07T22:33:46.866Z,89902.44
2023-01-07T22:36:27.493Z,89902.44
2023-01-07T22:38:58.854Z,89902.44
2023-01-07T22:41:30.086Z,89902.44
2023-01-07T22:44:06.107Z,89902.44
2023-01-07T22:46:38.112Z,89902.44
2023-01-07T22:49:06.494Z,90161.50
2023-01-07T22:51:42.594Z,89902.44
2023-01-07T22:54:12.261Z,90161.50
2023-01-07T22:56:42.849Z,90420.56
2023-01-07T22:59:12.381Z,90420.56
2023-01-07T23:01:40.153Z,90161.50
2023-01-07T23:04:07.961Z,90161.50
2023-01-07T23:06:35.416Z,90161.50
2023-01-07T23:09:05.804Z,90161.50
2023-01-07T23:11:48.650Z,90420.56
2023-01-07T23:14:18.817Z,90420.56
2023-01-07T23:16:46.834Z,90161.50
2023-01-07T23:19:14.728Z,90420.56
2023-01-07T23:21:43.688Z,90161.50
2023-01-07T23:24:12.604Z,90420.56
2023-01-07T23:26:40.938Z,90420.56
2023-01-07T23:29:10.789Z,90420.56
2023-01-07T23:31:40.312Z,90420.56
2023-01-07T23:34:08.180Z,90420.56
2023-01-07T23:36:37.398Z,90679.66
2023-01-07T23:39:06.047Z,90420.56
2023-01-07T23:41:33.344Z,90420.56
2023-01-07T23:44:03.401Z,90420.56
2023-01-07T23:46:31.682Z,90679.66
2023-01-07T23:49:02.056Z,90679.66
2023-01-07T23:51:29.279Z,90679.66
2023-01-07T23:53:56.519Z,90679.66
2023-01-07T23:56:23.880Z,90679.66
2023-01-07T23:58:51.246Z,90679.66
